sensor_id;sensor_type;location;lat;lon;timestamp;temperature;humidity
33863;DHT22;20158;51.436;-2.742;2023-05-07T00:00:47;17.10;63.50
33863;DHT22;20158;51.436;-2.742;2023-05-07T00:03:13;17.00;63.40
33863;DHT22;20158;51.436;-2.742;2023-05-07T00:05:39;17.10;63.70
33863;DHT22;20158;51.436;-2.742;2023-05-07T00:08:05;17.10;63.70
33863;DHT22;20158;51.436;-2.742;2023-05-07T00:10:31;17.00;63.60
33863;DHT22;20158;51.436;-2.742;2023-05-07T00:12:57;17.00;63.60
33863;DHT22;20158;51.436;-2.742;2023-05-07T00:15:23;17.00;63.60
33863;DHT22;20158;51.436;-2.742;2023-05-07T00:17:49;17.00;63.70
33863;DHT22;20158;51.436;-2.742;2023-05-07T00:20:15;17.00;63.70
33863;DHT22;20158;51.436;-2.742;2023-05-07T00:22:41;17.00;63.80
33863;DHT22;20158;51.436;-2.742;2023-05-07T00:25:07;17.00;63.80
33863;DHT22;20158;51.436;-2.742;2023-05-07T00:27:33;17.00;63.90
33863;DHT22;20158;51.436;-2.742;2023-05-07T00:29:59;16.90;63.80
33863;DHT22;20158;51.436;-2.742;2023-05-07T00:32:25;16.90;64.30
33863;DHT22;20158;51.436;-2.742;2023-05-07T00:34:51;16.90;63.80
33863;DHT22;20158;51.436;-2.742;2023-05-07T00:37:16;16.80;63.80
33863;DHT22;20158;51.436;-2.742;2023-05-07T00:39:42;16.80;63.80
33863;DHT22;20158;51.436;-2.742;2023-05-07T00:42:08;16.80;63.80
33863;DHT22;20158;51.436;-2.742;2023-05-07T00:44:34;16.80;63.80
33863;DHT22;20158;51.436;-2.742;2023-05-07T00:47:02;16.80;63.90
33863;DHT22;20158;51.436;-2.742;2023-05-07T00:49:44;16.80;63.90
33863;DHT22;20158;51.436;-2.742;2023-05-07T00:52:13;16.70;64.40
33863;DHT22;20158;51.436;-2.742;2023-05-07T00:54:41;16.70;63.90
33863;DHT22;20158;51.436;-2.742;2023-05-07T00:57:07;16.70;63.90
33863;DHT22;20158;51.436;-2.742;2023-05-07T00:59:35;16.70;64.00
33863;DHT22;20158;51.436;-2.742;2023-05-07T01:02:01;16.70;64.00
33863;DHT22;20158;51.436;-2.742;2023-05-07T01:04:27;16.60;63.90
33863;DHT22;20158;51.436;-2.742;2023-05-07T01:06:55;16.60;64.00
33863;DHT22;20158;51.436;-2.742;2023-05-07T01:09:23;16.60;64.10
33863;DHT22;20158;51.436;-2.742;2023-05-07T01:11:50;16.60;64.10
33863;DHT22;20158;51.436;-2.742;2023-05-07T01:14:17;16.50;64.00
33863;DHT22;20158;51.436;-2.742;2023-05-07T01:16:44;16.50;64.00
33863;DHT22;20158;51.436;-2.742;2023-05-07T01:19:11;16.60;64.20
33863;DHT22;20158;51.436;-2.742;2023-05-07T01:21:45;16.50;64.10
33863;DHT22;20158;51.436;-2.742;2023-05-07T01:24:12;16.50;64.20
33863;DHT22;20158;51.436;-2.742;2023-05-07T01:26:39;16.50;64.20
33863;DHT22;20158;51.436;-2.742;2023-05-07T01:29:06;16.50;64.20
33863;DHT22;20158;51.436;-2.742;2023-05-07T01:31:33;16.50;64.20
33863;DHT22;20158;51.436;-2.742;2023-05-07T01:34:01;16.50;64.30
33863;DHT22;20158;51.436;-2.742;2023-05-07T01:36:29;16.50;64.30
33863;DHT22;20158;51.436;-2.742;2023-05-07T01:38:55;16.50;64.40
33863;DHT22;20158;51.436;-2.742;2023-05-07T01:41:23;16.40;64.20
33863;DHT22;20158;51.436;-2.742;2023-05-07T01:43:51;16.40;64.30
33863;DHT22;20158;51.436;-2.742;2023-05-07T01:46:18;16.40;64.30
33863;DHT22;20158;51.436;-2.742;2023-05-07T01:48:45;16.40;64.30
33863;DHT22;20158;51.436;-2.742;2023-05-07T01:51:12;16.40;64.40
33863;DHT22;20158;51.436;-2.742;2023-05-07T01:53:39;16.40;64.40
33863;DHT22;20158;51.436;-2.742;2023-05-07T01:56:06;16.30;64.30
33863;DHT22;20158;51.436;-2.742;2023-05-07T01:58:33;16.30;64.30
33863;DHT22;20158;51.436;-2.742;2023-05-07T02:00:59;16.30;64.30
33863;DHT22;20158;51.436;-2.742;2023-05-07T02:03:25;16.30;64.40
33863;DHT22;20158;51.436;-2.742;2023-05-07T02:05:59;16.20;64.20
33863;DHT22;20158;51.436;-2.742;2023-05-07T02:08:30;16.30;64.50
33863;DHT22;20158;51.436;-2.742;2023-05-07T02:10:57;16.20;64.40
33863;DHT22;20158;51.436;-2.742;2023-05-07T02:13:26;16.20;64.40
33863;DHT22;20158;51.436;-2.742;2023-05-07T02:15:52;16.20;64.50
33863;DHT22;20158;51.436;-2.742;2023-05-07T02:18:20;16.20;64.60
33863;DHT22;20158;51.436;-2.742;2023-05-07T02:20:45;16.20;64.60
33863;DHT22;20158;51.436;-2.742;2023-05-07T02:23:11;16.10;64.40
33863;DHT22;20158;51.436;-2.742;2023-05-07T02:25:38;16.10;64.50
33863;DHT22;20158;51.436;-2.742;2023-05-07T02:28:04;16.10;64.50
33863;DHT22;20158;51.436;-2.742;2023-05-07T02:30:52;16.20;64.70
33863;DHT22;20158;51.436;-2.742;2023-05-07T02:33:19;16.10;64.60
33863;DHT22;20158;51.436;-2.742;2023-05-07T02:35:46;16.10;64.60
33863;DHT22;20158;51.436;-2.742;2023-05-07T02:38:14;16.10;64.60
33863;DHT22;20158;51.436;-2.742;2023-05-07T02:40:41;16.10;64.60
33863;DHT22;20158;51.436;-2.742;2023-05-07T02:43:08;16.00;64.50
33863;DHT22;20158;51.436;-2.742;2023-05-07T02:45:35;16.00;64.50
33863;DHT22;20158;51.436;-2.742;2023-05-07T02:48:03;16.10;64.70
33863;DHT22;20158;51.436;-2.742;2023-05-07T02:50:31;16.00;64.60
33863;DHT22;20158;51.436;-2.742;2023-05-07T02:52:58;16.00;64.60
33863;DHT22;20158;51.436;-2.742;2023-05-07T02:55:24;16.00;64.70
33863;DHT22;20158;51.436;-2.742;2023-05-07T02:57:50;16.00;64.70
33863;DHT22;20158;51.436;-2.742;2023-05-07T03:00:17;16.00;64.80
33863;DHT22;20158;51.436;-2.742;2023-05-07T03:02:54;16.00;64.80
33863;DHT22;20158;51.436;-2.742;2023-05-07T03:05:21;15.90;64.60
33863;DHT22;20158;51.436;-2.742;2023-05-07T03:07:47;15.90;64.70
33863;DHT22;20158;51.436;-2.742;2023-05-07T03:10:14;15.90;64.70
33863;DHT22;20158;51.436;-2.742;2023-05-07T03:12:40;15.90;64.80
33863;DHT22;20158;51.436;-2.742;2023-05-07T03:15:08;15.80;64.60
33863;DHT22;20158;51.436;-2.742;2023-05-07T03:17:34;15.90;64.80
33863;DHT22;20158;51.436;-2.742;2023-05-07T03:20:00;15.80;64.70
33863;DHT22;20158;51.436;-2.742;2023-05-07T03:22:26;15.80;64.80
33863;DHT22;20158;51.436;-2.742;2023-05-07T03:24:52;15.80;64.80
33863;DHT22;20158;51.436;-2.742;2023-05-07T03:27:18;15.80;64.80
33863;DHT22;20158;51.436;-2.742;2023-05-07T03:29:44;15.70;64.70
33863;DHT22;20158;51.436;-2.742;2023-05-07T03:32:10;15.80;65.00
33863;DHT22;20158;51.436;-2.742;2023-05-07T03:34:37;15.70;64.80
33863;DHT22;20158;51.436;-2.742;2023-05-07T03:37:02;15.70;64.90
33863;DHT22;20158;51.436;-2.742;2023-05-07T03:39:28;15.70;64.90
33863;DHT22;20158;51.436;-2.742;2023-05-07T03:41:54;15.70;64.90
33863;DHT22;20158;51.436;-2.742;2023-05-07T03:44:20;15.70;65.00
33863;DHT22;20158;51.436;-2.742;2023-05-07T03:46:47;15.70;65.00
33863;DHT22;20158;51.436;-2.742;2023-05-07T03:49:13;15.60;64.80
33863;DHT22;20158;51.436;-2.742;2023-05-07T03:51:39;15.60;64.80
33863;DHT22;20158;51.436;-2.742;2023-05-07T03:54:07;15.60;64.80
33863;DHT22;20158;51.436;-2.742;2023-05-07T03:56:33;15.60;64.90
33863;DHT22;20158;51.436;-2.742;2023-05-07T03:59:00;15.60;65.00
33863;DHT22;20158;51.436;-2.742;2023-05-07T04:01:26;15.60;64.90
33863;DHT22;20158;51.436;-2.742;2023-05-07T04:03:52;15.60;65.00
33863;DHT22;20158;51.436;-2.742;2023-05-07T04:06:18;15.50;64.80
33863;DHT22;20158;51.436;-2.742;2023-05-07T04:08:48;15.60;65.00
33863;DHT22;20158;51.436;-2.742;2023-05-07T04:11:14;15.50;65.40
33863;DHT22;20158;51.436;-2.742;2023-05-07T04:13:40;15.50;64.90
33863;DHT22;20158;51.436;-2.742;2023-05-07T04:16:08;15.50;64.90
33863;DHT22;20158;51.436;-2.742;2023-05-07T04:18:35;15.50;64.90
33863;DHT22;20158;51.436;-2.742;2023-05-07T04:21:01;15.50;64.90
33863;DHT22;20158;51.436;-2.742;2023-05-07T04:23:27;15.50;64.90
33863;DHT22;20158;51.436;-2.742;2023-05-07T04:25:54;15.50;64.90
33863;DHT22;20158;51.436;-2.742;2023-05-07T04:28:29;15.40;64.80
33863;DHT22;20158;51.436;-2.742;2023-05-07T04:30:56;15.40;64.80
33863;DHT22;20158;51.436;-2.742;2023-05-07T04:33:23;15.40;65.30
33863;DHT22;20158;51.436;-2.742;2023-05-07T04:35:50;15.40;64.80
33863;DHT22;20158;51.436;-2.742;2023-05-07T04:38:15;15.40;64.90
33863;DHT22;20158;51.436;-2.742;2023-05-07T04:40:42;15.40;64.90
33863;DHT22;20158;51.436;-2.742;2023-05-07T04:43:11;15.40;64.90
33863;DHT22;20158;51.436;-2.742;2023-05-07T04:45:43;15.40;64.90
33863;DHT22;20158;51.436;-2.742;2023-05-07T04:48:10;15.40;64.90
33863;DHT22;20158;51.436;-2.742;2023-05-07T04:50:38;15.40;64.90
33863;DHT22;20158;51.436;-2.742;2023-05-07T04:53:04;15.40;64.90
33863;DHT22;20158;51.436;-2.742;2023-05-07T04:55:30;15.30;64.80
33863;DHT22;20158;51.436;-2.742;2023-05-07T04:57:56;15.40;64.90
33863;DHT22;20158;51.436;-2.742;2023-05-07T05:00:23;15.30;64.70
33863;DHT22;20158;51.436;-2.742;2023-05-07T05:02:51;15.30;64.80
33863;DHT22;20158;51.436;-2.742;2023-05-07T05:05:19;15.40;64.90
33863;DHT22;20158;51.436;-2.742;2023-05-07T05:07:47;15.30;64.70
33863;DHT22;20158;51.436;-2.742;2023-05-07T05:10:13;15.30;64.80
33863;DHT22;20158;51.436;-2.742;2023-05-07T05:12:40;15.30;64.80
33863;DHT22;20158;51.436;-2.742;2023-05-07T05:15:07;15.30;64.80
33863;DHT22;20158;51.436;-2.742;2023-05-07T05:17:34;15.30;64.80
33863;DHT22;20158;51.436;-2.742;2023-05-07T05:20:03;15.30;64.80
33863;DHT22;20158;51.436;-2.742;2023-05-07T05:22:30;15.30;64.90
33863;DHT22;20158;51.436;-2.742;2023-05-07T05:24:58;15.30;64.90
33863;DHT22;20158;51.436;-2.742;2023-05-07T05:27:24;15.30;64.90
33863;DHT22;20158;51.436;-2.742;2023-05-07T05:29:50;15.30;64.90
33863;DHT22;20158;51.436;-2.742;2023-05-07T05:32:16;15.30;64.80
33863;DHT22;20158;51.436;-2.742;2023-05-07T05:34:42;15.30;64.80
33863;DHT22;20158;51.436;-2.742;2023-05-07T05:37:09;15.30;64.80
33863;DHT22;20158;51.436;-2.742;2023-05-07T05:39:35;15.30;64.70
33863;DHT22;20158;51.436;-2.742;2023-05-07T05:42:02;15.40;64.80
33863;DHT22;20158;51.436;-2.742;2023-05-07T05:44:28;15.40;64.80
33863;DHT22;20158;51.436;-2.742;2023-05-07T05:46:54;15.40;64.80
33863;DHT22;20158;51.436;-2.742;2023-05-07T05:49:21;15.40;64.70
33863;DHT22;20158;51.436;-2.742;2023-05-07T05:51:48;15.50;64.80
33863;DHT22;20158;51.436;-2.742;2023-05-07T05:54:14;15.50;65.40
33863;DHT22;20158;51.436;-2.742;2023-05-07T05:56:41;15.60;65.70
33863;DHT22;20158;51.436;-2.742;2023-05-07T05:59:07;15.70;66.50
33863;DHT22;20158;51.436;-2.742;2023-05-07T06:01:33;15.90;67.20
33863;DHT22;20158;51.436;-2.742;2023-05-07T06:04:02;16.10;67.70
33863;DHT22;20158;51.436;-2.742;2023-05-07T06:06:29;16.30;68.10
33863;DHT22;20158;51.436;-2.742;2023-05-07T06:08:54;16.40;68.20
33863;DHT22;20158;51.436;-2.742;2023-05-07T06:11:27;16.60;68.50
33863;DHT22;20158;51.436;-2.742;2023-05-07T06:13:52;16.70;68.70
33863;DHT22;20158;51.436;-2.742;2023-05-07T06:16:18;16.90;69.00
33863;DHT22;20158;51.436;-2.742;2023-05-07T06:18:45;17.00;69.10
33863;DHT22;20158;51.436;-2.742;2023-05-07T06:21:13;17.10;69.20
33863;DHT22;20158;51.436;-2.742;2023-05-07T06:23:39;17.30;69.50
33863;DHT22;20158;51.436;-2.742;2023-05-07T06:26:07;17.40;69.60
33863;DHT22;20158;51.436;-2.742;2023-05-07T06:28:39;17.50;69.60
33863;DHT22;20158;51.436;-2.742;2023-05-07T06:31:14;17.70;69.70
33863;DHT22;20158;51.436;-2.742;2023-05-07T06:33:43;17.80;69.70
33863;DHT22;20158;51.436;-2.742;2023-05-07T06:36:09;18.00;69.80
33863;DHT22;20158;51.436;-2.742;2023-05-07T06:38:35;18.10;69.80
33863;DHT22;20158;51.436;-2.742;2023-05-07T06:41:01;18.20;70.00
33863;DHT22;20158;51.436;-2.742;2023-05-07T06:43:27;18.30;70.10
33863;DHT22;20158;51.436;-2.742;2023-05-07T06:45:56;18.40;70.00
33863;DHT22;20158;51.436;-2.742;2023-05-07T06:48:22;18.40;69.70
33863;DHT22;20158;51.436;-2.742;2023-05-07T06:50:55;18.50;69.70
33863;DHT22;20158;51.436;-2.742;2023-05-07T06:53:24;18.60;69.50
33863;DHT22;20158;51.436;-2.742;2023-05-07T06:55:51;18.60;69.30
33863;DHT22;20158;51.436;-2.742;2023-05-07T06:58:19;18.50;69.00
33863;DHT22;20158;51.436;-2.742;2023-05-07T07:00:45;18.60;69.20
33863;DHT22;20158;51.436;-2.742;2023-05-07T07:03:12;18.70;69.00
33863;DHT22;20158;51.436;-2.742;2023-05-07T07:05:41;19.00;69.20
33863;DHT22;20158;51.436;-2.742;2023-05-07T07:08:07;19.40;68.70
33863;DHT22;20158;51.436;-2.742;2023-05-07T07:10:33;19.90;68.70
33863;DHT22;20158;51.436;-2.742;2023-05-07T07:13:00;20.40;68.10
33863;DHT22;20158;51.436;-2.742;2023-05-07T07:15:28;21.00;67.60
33863;DHT22;20158;51.436;-2.742;2023-05-07T07:17:55;21.70;66.90
33863;DHT22;20158;51.436;-2.742;2023-05-07T07:20:22;22.30;65.80
33863;DHT22;20158;51.436;-2.742;2023-05-07T07:22:48;22.80;64.80
33863;DHT22;20158;51.436;-2.742;2023-05-07T07:25:16;23.10;64.20
33863;DHT22;20158;51.436;-2.742;2023-05-07T07:27:42;23.20;63.10
33863;DHT22;20158;51.436;-2.742;2023-05-07T07:30:09;22.90;62.50
33863;DHT22;20158;51.436;-2.742;2023-05-07T07:32:37;22.80;62.70
33863;DHT22;20158;51.436;-2.742;2023-05-07T07:35:04;23.10;63.00
33863;DHT22;20158;51.436;-2.742;2023-05-07T07:37:31;23.50;62.70
33863;DHT22;20158;51.436;-2.742;2023-05-07T07:39:57;23.90;62.20
33863;DHT22;20158;51.436;-2.742;2023-05-07T07:42:23;24.10;61.90
33863;DHT22;20158;51.436;-2.742;2023-05-07T07:44:49;24.20;61.80
33863;DHT22;20158;51.436;-2.742;2023-05-07T07:47:19;24.20;61.50
33863;DHT22;20158;51.436;-2.742;2023-05-07T07:49:47;24.10;61.10
33863;DHT22;20158;51.436;-2.742;2023-05-07T07:52:13;24.20;61.10
33863;DHT22;20158;51.436;-2.742;2023-05-07T07:54:40;24.20;60.60
33863;DHT22;20158;51.436;-2.742;2023-05-07T07:57:07;24.30;60.30
33863;DHT22;20158;51.436;-2.742;2023-05-07T07:59:33;24.30;60.00
33863;DHT22;20158;51.436;-2.742;2023-05-07T08:01:59;24.10;59.40
33863;DHT22;20158;51.436;-2.742;2023-05-07T08:04:27;24.00;59.30
33863;DHT22;20158;51.436;-2.742;2023-05-07T08:06:55;23.90;59.20
33863;DHT22;20158;51.436;-2.742;2023-05-07T08:09:22;23.80;59.00
33863;DHT22;20158;51.436;-2.742;2023-05-07T08:11:49;24.00;59.10
33863;DHT22;20158;51.436;-2.742;2023-05-07T08:14:15;24.00;58.70
33863;DHT22;20158;51.436;-2.742;2023-05-07T08:16:44;23.90;58.40
33863;DHT22;20158;51.436;-2.742;2023-05-07T08:19:10;23.90;58.60
33863;DHT22;20158;51.436;-2.742;2023-05-07T08:21:39;23.80;58.50
33863;DHT22;20158;51.436;-2.742;2023-05-07T08:24:06;23.70;58.30
33863;DHT22;20158;51.436;-2.742;2023-05-07T08:26:32;23.50;58.10
33863;DHT22;20158;51.436;-2.742;2023-05-07T08:28:58;23.40;58.00
33863;DHT22;20158;51.436;-2.742;2023-05-07T08:31:24;23.30;57.90
33863;DHT22;20158;51.436;-2.742;2023-05-07T08:33:50;23.30;57.80
33863;DHT22;20158;51.436;-2.742;2023-05-07T08:36:16;23.30;57.90
33863;DHT22;20158;51.436;-2.742;2023-05-07T08:38:44;23.20;57.70
33863;DHT22;20158;51.436;-2.742;2023-05-07T08:41:12;23.30;57.70
33863;DHT22;20158;51.436;-2.742;2023-05-07T08:43:41;23.30;57.60
33863;DHT22;20158;51.436;-2.742;2023-05-07T08:46:09;23.40;57.60
33863;DHT22;20158;51.436;-2.742;2023-05-07T08:48:40;23.40;57.40
33863;DHT22;20158;51.436;-2.742;2023-05-07T08:51:16;23.50;57.40
33863;DHT22;20158;51.436;-2.742;2023-05-07T08:53:44;23.50;57.20
33863;DHT22;20158;51.436;-2.742;2023-05-07T08:56:15;23.60;57.30
33863;DHT22;20158;51.436;-2.742;2023-05-07T08:58:44;23.70;57.20
33863;DHT22;20158;51.436;-2.742;2023-05-07T09:01:15;23.70;56.90
33863;DHT22;20158;51.436;-2.742;2023-05-07T09:03:46;23.80;56.90
33863;DHT22;20158;51.436;-2.742;2023-05-07T09:06:13;24.00;57.20
33863;DHT22;20158;51.436;-2.742;2023-05-07T09:08:40;24.20;57.10
33863;DHT22;20158;51.436;-2.742;2023-05-07T09:11:07;24.40;57.10
33863;DHT22;20158;51.436;-2.742;2023-05-07T09:13:33;24.50;57.00
33863;DHT22;20158;51.436;-2.742;2023-05-07T09:16:10;24.50;56.60
33863;DHT22;20158;51.436;-2.742;2023-05-07T09:18:44;24.60;56.40
33863;DHT22;20158;51.436;-2.742;2023-05-07T09:21:16;24.70;56.50
33863;DHT22;20158;51.436;-2.742;2023-05-07T09:23:42;24.70;56.50
33863;DHT22;20158;51.436;-2.742;2023-05-07T09:26:08;24.80;56.70
33863;DHT22;20158;51.436;-2.742;2023-05-07T09:28:39;24.90;56.80
33863;DHT22;20158;51.436;-2.742;2023-05-07T09:31:07;25.00;56.80
33863;DHT22;20158;51.436;-2.742;2023-05-07T09:33:33;25.10;56.70
33863;DHT22;20158;51.436;-2.742;2023-05-07T09:36:12;25.20;56.60
33863;DHT22;20158;51.436;-2.742;2023-05-07T09:38:40;25.30;56.30
33863;DHT22;20158;51.436;-2.742;2023-05-07T09:41:07;25.40;56.40
33863;DHT22;20158;51.436;-2.742;2023-05-07T09:43:40;25.50;56.30
33863;DHT22;20158;51.436;-2.742;2023-05-07T09:46:15;25.60;56.30
33863;DHT22;20158;51.436;-2.742;2023-05-07T09:48:48;25.60;56.10
33863;DHT22;20158;51.436;-2.742;2023-05-07T09:51:29;25.70;56.20
33863;DHT22;20158;51.436;-2.742;2023-05-07T09:53:58;26.00;55.80
33863;DHT22;20158;51.436;-2.742;2023-05-07T09:56:30;26.30;55.60
33863;DHT22;20158;51.436;-2.742;2023-05-07T09:59:00;26.70;55.20
33863;DHT22;20158;51.436;-2.742;2023-05-07T10:01:27;27.00;54.70
33863;DHT22;20158;51.436;-2.742;2023-05-07T10:03:53;27.30;54.40
33863;DHT22;20158;51.436;-2.742;2023-05-07T10:06:20;27.40;54.00
33863;DHT22;20158;51.436;-2.742;2023-05-07T10:08:48;27.50;53.80
33863;DHT22;20158;51.436;-2.742;2023-05-07T10:11:15;27.60;53.70
33863;DHT22;20158;51.436;-2.742;2023-05-07T10:13:43;27.60;53.60
33863;DHT22;20158;51.436;-2.742;2023-05-07T10:16:10;27.60;53.60
33863;DHT22;20158;51.436;-2.742;2023-05-07T10:18:43;27.50;53.50
33863;DHT22;20158;51.436;-2.742;2023-05-07T10:21:18;27.50;54.20
33863;DHT22;20158;51.436;-2.742;2023-05-07T10:23:50;27.50;53.80
33863;DHT22;20158;51.436;-2.742;2023-05-07T10:26:21;27.60;54.00
33863;DHT22;20158;51.436;-2.742;2023-05-07T10:28:53;27.70;53.70
33863;DHT22;20158;51.436;-2.742;2023-05-07T10:31:43;27.80;53.60
33863;DHT22;20158;51.436;-2.742;2023-05-07T10:34:17;27.90;53.30
33863;DHT22;20158;51.436;-2.742;2023-05-07T10:36:44;28.10;53.10
33863;DHT22;20158;51.436;-2.742;2023-05-07T10:39:11;28.30;52.90
33863;DHT22;20158;51.436;-2.742;2023-05-07T10:41:39;28.40;52.60
33863;DHT22;20158;51.436;-2.742;2023-05-07T10:44:06;28.50;52.50
33863;DHT22;20158;51.436;-2.742;2023-05-07T10:46:34;28.60;52.40
33863;DHT22;20158;51.436;-2.742;2023-05-07T10:49:18;28.70;52.20
33863;DHT22;20158;51.436;-2.742;2023-05-07T10:54:41;28.90;51.70
33863;DHT22;20158;51.436;-2.742;2023-05-07T10:57:33;29.00;51.70
33863;DHT22;20158;51.436;-2.742;2023-05-07T11:05:42;29.30;51.00
33863;DHT22;20158;51.436;-2.742;2023-05-07T11:08:53;29.30;50.90
33863;DHT22;20158;51.436;-2.742;2023-05-07T11:11:48;29.30;50.90
33863;DHT22;20158;51.436;-2.742;2023-05-07T11:17:11;29.30;50.70
33863;DHT22;20158;51.436;-2.742;2023-05-07T11:19:51;29.20;50.30
33863;DHT22;20158;51.436;-2.742;2023-05-07T11:25:19;29.20;49.90
33863;DHT22;20158;51.436;-2.742;2023-05-07T11:27:50;29.20;49.70
33863;DHT22;20158;51.436;-2.742;2023-05-07T11:30:17;29.20;49.80
33863;DHT22;20158;51.436;-2.742;2023-05-07T11:32:47;29.20;49.60
33863;DHT22;20158;51.436;-2.742;2023-05-07T11:35:15;29.30;50.10
33863;DHT22;20158;51.436;-2.742;2023-05-07T11:37:44;29.30;49.40
33863;DHT22;20158;51.436;-2.742;2023-05-07T11:40:12;29.30;49.50
33863;DHT22;20158;51.436;-2.742;2023-05-07T11:42:40;29.30;49.70
33863;DHT22;20158;51.436;-2.742;2023-05-07T11:45:08;29.30;49.80
33863;DHT22;20158;51.436;-2.742;2023-05-07T11:47:34;29.30;49.80
33863;DHT22;20158;51.436;-2.742;2023-05-07T11:50:05;29.30;49.90
33863;DHT22;20158;51.436;-2.742;2023-05-07T11:52:33;29.40;49.90
33863;DHT22;20158;51.436;-2.742;2023-05-07T11:55:00;29.40;49.90
33863;DHT22;20158;51.436;-2.742;2023-05-07T11:57:27;29.50;49.90
33863;DHT22;20158;51.436;-2.742;2023-05-07T11:59:54;29.60;49.90
33863;DHT22;20158;51.436;-2.742;2023-05-07T12:02:20;29.60;49.80
33863;DHT22;20158;51.436;-2.742;2023-05-07T12:04:46;29.70;49.80
33863;DHT22;20158;51.436;-2.742;2023-05-07T12:07:15;29.80;49.60
33863;DHT22;20158;51.436;-2.742;2023-05-07T12:09:42;29.90;49.60
33863;DHT22;20158;51.436;-2.742;2023-05-07T12:12:08;29.90;49.60
33863;DHT22;20158;51.436;-2.742;2023-05-07T12:14:41;30.00;49.50
33863;DHT22;20158;51.436;-2.742;2023-05-07T12:17:07;30.10;49.30
33863;DHT22;20158;51.436;-2.742;2023-05-07T12:19:35;30.20;49.20
33863;DHT22;20158;51.436;-2.742;2023-05-07T12:22:03;30.40;49.10
33863;DHT22;20158;51.436;-2.742;2023-05-07T12:24:29;30.50;48.80
33863;DHT22;20158;51.436;-2.742;2023-05-07T12:26:55;30.70;48.70
33863;DHT22;20158;51.436;-2.742;2023-05-07T12:29:24;30.80;48.50
33863;DHT22;20158;51.436;-2.742;2023-05-07T12:31:50;30.90;48.20
33863;DHT22;20158;51.436;-2.742;2023-05-07T12:34:16;31.00;48.20
33863;DHT22;20158;51.436;-2.742;2023-05-07T12:36:42;31.00;48.20
33863;DHT22;20158;51.436;-2.742;2023-05-07T12:39:08;31.00;48.70
33863;DHT22;20158;51.436;-2.742;2023-05-07T12:41:54;31.20;48.00
33863;DHT22;20158;51.436;-2.742;2023-05-07T12:44:34;31.40;47.70
33863;DHT22;20158;51.436;-2.742;2023-05-07T12:47:03;31.60;47.60
33863;DHT22;20158;51.436;-2.742;2023-05-07T12:49:29;31.80;47.30
33863;DHT22;20158;51.436;-2.742;2023-05-07T12:51:55;31.90;47.10
33863;DHT22;20158;51.436;-2.742;2023-05-07T12:54:29;32.00;46.90
33863;DHT22;20158;51.436;-2.742;2023-05-07T12:57:03;32.10;46.80
33863;DHT22;20158;51.436;-2.742;2023-05-07T12:59:37;32.20;46.60
33863;DHT22;20158;51.436;-2.742;2023-05-07T13:02:04;32.40;46.40
33863;DHT22;20158;51.436;-2.742;2023-05-07T13:04:30;32.60;46.30
33863;DHT22;20158;51.436;-2.742;2023-05-07T13:06:56;32.70;46.10
33863;DHT22;20158;51.436;-2.742;2023-05-07T13:09:22;32.80;45.90
33863;DHT22;20158;51.436;-2.742;2023-05-07T13:11:48;32.90;45.90
33863;DHT22;20158;51.436;-2.742;2023-05-07T13:14:14;32.90;45.70
33863;DHT22;20158;51.436;-2.742;2023-05-07T13:16:41;33.00;45.50
33863;DHT22;20158;51.436;-2.742;2023-05-07T13:19:07;33.00;45.20
33863;DHT22;20158;51.436;-2.742;2023-05-07T13:21:34;33.00;45.00
33863;DHT22;20158;51.436;-2.742;2023-05-07T13:24:00;33.00;44.90
33863;DHT22;20158;51.436;-2.742;2023-05-07T13:26:26;33.10;44.70
33863;DHT22;20158;51.436;-2.742;2023-05-07T13:28:53;33.30;44.50
33863;DHT22;20158;51.436;-2.742;2023-05-07T13:31:19;33.60;44.20
33863;DHT22;20158;51.436;-2.742;2023-05-07T13:33:46;33.80;43.90
33863;DHT22;20158;51.436;-2.742;2023-05-07T13:36:12;34.00;43.60
33863;DHT22;20158;51.436;-2.742;2023-05-07T13:38:41;34.10;43.30
33863;DHT22;20158;51.436;-2.742;2023-05-07T13:41:07;34.30;43.00
33863;DHT22;20158;51.436;-2.742;2023-05-07T13:43:33;34.40;42.90
33863;DHT22;20158;51.436;-2.742;2023-05-07T13:46:00;34.50;42.70
33863;DHT22;20158;51.436;-2.742;2023-05-07T13:48:26;34.60;42.40
33863;DHT22;20158;51.436;-2.742;2023-05-07T13:50:54;34.60;42.20
33863;DHT22;20158;51.436;-2.742;2023-05-07T13:53:20;34.70;42.20
33863;DHT22;20158;51.436;-2.742;2023-05-07T13:55:46;34.70;42.00
33863;DHT22;20158;51.436;-2.742;2023-05-07T13:58:11;34.80;41.90
33863;DHT22;20158;51.436;-2.742;2023-05-07T14:00:37;34.80;41.70
33863;DHT22;20158;51.436;-2.742;2023-05-07T14:03:05;34.90;41.60
33863;DHT22;20158;51.436;-2.742;2023-05-07T14:05:31;35.00;41.40
33863;DHT22;20158;51.436;-2.742;2023-05-07T14:07:58;35.00;41.30
33863;DHT22;20158;51.436;-2.742;2023-05-07T14:10:24;35.10;41.30
33863;DHT22;20158;51.436;-2.742;2023-05-07T14:12:53;35.10;41.20
33863;DHT22;20158;51.436;-2.742;2023-05-07T14:15:19;35.10;41.00
33863;DHT22;20158;51.436;-2.742;2023-05-07T14:17:45;35.20;40.90
33863;DHT22;20158;51.436;-2.742;2023-05-07T14:20:16;35.30;41.00
33863;DHT22;20158;51.436;-2.742;2023-05-07T14:22:42;35.30;40.80
33863;DHT22;20158;51.436;-2.742;2023-05-07T14:25:11;35.20;40.70
33863;DHT22;20158;51.436;-2.742;2023-05-07T14:27:37;35.20;40.50
33863;DHT22;20158;51.436;-2.742;2023-05-07T14:30:06;35.10;40.10
33863;DHT22;20158;51.436;-2.742;2023-05-07T14:32:33;34.80;40.00
33863;DHT22;20158;51.436;-2.742;2023-05-07T14:34:59;34.60;40.00
33863;DHT22;20158;51.436;-2.742;2023-05-07T14:37:25;34.30;40.10
33863;DHT22;20158;51.436;-2.742;2023-05-07T14:39:52;34.00;40.20
33863;DHT22;20158;51.436;-2.742;2023-05-07T14:42:21;33.70;40.30
33863;DHT22;20158;51.436;-2.742;2023-05-07T14:44:47;33.40;40.70
33863;DHT22;20158;51.436;-2.742;2023-05-07T14:47:22;33.10;40.80
33863;DHT22;20158;51.436;-2.742;2023-05-07T14:49:48;33.00;40.90
33863;DHT22;20158;51.436;-2.742;2023-05-07T14:52:19;32.80;41.00
33863;DHT22;20158;51.436;-2.742;2023-05-07T14:54:45;32.60;41.00
33863;DHT22;20158;51.436;-2.742;2023-05-07T14:57:13;32.50;41.10
33863;DHT22;20158;51.436;-2.742;2023-05-07T14:59:40;32.40;41.10
33863;DHT22;20158;51.436;-2.742;2023-05-07T15:02:07;32.40;41.10
33863;DHT22;20158;51.436;-2.742;2023-05-07T15:04:34;32.40;41.20
33863;DHT22;20158;51.436;-2.742;2023-05-07T15:07:00;32.40;41.10
33863;DHT22;20158;51.436;-2.742;2023-05-07T15:09:26;32.40;41.10
33863;DHT22;20158;51.436;-2.742;2023-05-07T15:11:52;32.40;41.10
33863;DHT22;20158;51.436;-2.742;2023-05-07T15:14:18;32.40;41.10
33863;DHT22;20158;51.436;-2.742;2023-05-07T15:16:44;32.30;41.10
33863;DHT22;20158;51.436;-2.742;2023-05-07T15:19:11;32.30;41.20
33863;DHT22;20158;51.436;-2.742;2023-05-07T15:21:36;32.20;41.10
33863;DHT22;20158;51.436;-2.742;2023-05-07T15:24:02;32.20;41.30
33863;DHT22;20158;51.436;-2.742;2023-05-07T15:26:28;32.10;41.40
33863;DHT22;20158;51.436;-2.742;2023-05-07T15:28:55;32.10;41.60
33863;DHT22;20158;51.436;-2.742;2023-05-07T15:31:23;32.00;41.70
33863;DHT22;20158;51.436;-2.742;2023-05-07T15:33:50;32.10;41.90